Terminal Aerodrome Forecast
Issued by NWS

Home | Current Version | Previous Version | Text Only | Print | Product List | Glossary On
Versions: 1 2 3 4 5 6 7 8 9 10 11 12 13 14 15 16 17 18 19 20 21 22 23 24 25 26
000
FTAK31 PAFA 131140
TAFAUN
TAF
PAUN 131140Z 1312/1412 09021KT P6SM VCSH SKC
     FM131500 09018KT 6SM -FZRASN BKN015 OVC025
     FM131800 09012KT 2SM -FZRASN BKN007 OVC015
     FM140300 09015KT 2SM -SN BR OVC015
     FM140900 19015KT P6SM BKN050=

USA.gov is the U.S. government's official web portal to all federal, state and local government web resources and services.